Time;durP1;ratioP1;P1;durP2;ratioP2;P2;SDS_P1;SDS_P2;PMS_P1;PMS_P2;Temp;Humidity;BMP_temperature;BMP_pressure;BME280_temperature;BME280_humidity;BME280_pressure;Samples;Min_cycle;Max_cycle;Signal;HPM_P1;HPM_P2
2024/04/18 00:00:27;;;;;;;1.83;0.87;;;23.40;66.50;;;;;;5413297;26;23179;-23
2024/04/18 00:03:04;;;;;;;1.00;0.70;;;23.00;66.00;;;;;;5434028;26;21349;-25
2024/04/18 00:05:40;;;;;;;1.27;0.90;;;23.00;66.30;;;;;;5428838;26;20544;-25
2024/04/18 00:08:22;;;;;;;1.50;0.80;;;23.10;65.80;;;;;;5433778;26;20475;-24
2024/04/18 00:10:57;;;;;;;1.47;0.90;;;23.20;65.60;;;;;;5435783;26;20519;-24
2024/04/18 00:13:23;;;;;;;1.10;0.87;;;23.30;66.40;;;;;;5437449;26;20483;-22
2024/04/18 00:15:56;;;;;;;1.30;0.80;;;23.10;68.50;;;;;;5427781;26;21082;-23
2024/04/18 00:18:27;;;;;;;1.10;0.90;;;23.30;71.70;;;;;;5420544;26;20284;-24
2024/04/18 00:20:56;;;;;;;2.37;0.97;;;23.30;73.80;;;;;;5439380;26;21124;-23
2024/04/18 00:23:31;;;;;;;1.40;0.93;;;22.80;71.30;;;;;;5427475;26;20510;-26
2024/04/18 00:26:04;;;;;;;1.60;1.10;;;22.80;70.40;;;;;;5432514;26;20480;-23
2024/04/18 00:28:39;;;;;;;1.20;0.97;;;23.00;69.80;;;;;;5429281;26;20573;-26
2024/04/18 00:31:08;;;;;;;1.00;0.80;;;22.80;69.50;;;;;;5439379;26;20517;-23
2024/04/18 00:33:47;;;;;;;1.57;0.97;;;22.70;69.00;;;;;;5436461;26;20276;-25
2024/04/18 00:36:17;;;;;;;1.17;0.80;;;22.60;68.50;;;;;;5438692;26;20507;-24
2024/04/18 00:38:49;;;;;;;1.00;0.80;;;22.90;69.10;;;;;;5422792;26;20468;-24
2024/04/18 00:41:29;;;;;;;1.37;0.97;;;22.70;68.50;;;;;;5420567;26;20263;-23
2024/04/18 00:44:08;;;;;;;1.77;1.10;;;22.60;68.30;;;;;;5420219;26;20467;-25
2024/04/18 00:46:38;;;;;;;1.27;0.90;;;23.10;68.60;;;;;;5432722;26;20580;-25
2024/04/18 00:49:05;;;;;;;1.63;1.20;;;22.70;68.40;;;;;;5424052;26;20467;-24
2024/04/18 00:51:46;;;;;;;1.10;0.87;;;22.60;68.30;;;;;;5434855;26;21402;-25
2024/04/18 00:54:15;;;;;;;1.00;0.70;;;22.80;68.90;;;;;;5441966;26;20518;-26
2024/04/18 00:56:52;;;;;;;1.30;0.85;;;22.80;69.40;;;;;;5432188;26;20598;-27
2024/04/18 00:59:18;;;;;;;1.80;1.00;;;22.60;68.20;;;;;;5438319;26;20280;-25
2024/04/18 01:01:49;;;;;;;1.10;1.00;;;22.40;67.50;;;;;;5432145;26;20238;-23
2024/04/18 01:04:17;;;;;;;1.10;0.83;;;22.60;67.30;;;;;;5434961;26;20457;-24
2024/04/18 01:06:47;;;;;;;1.63;1.00;;;22.40;67.60;;;;;;5428672;26;20594;-22
2024/04/18 01:09:19;;;;;;;1.10;0.80;;;22.40;67.80;;;;;;5432198;26;20237;-25
2024/04/18 01:11:50;;;;;;;1.17;0.80;;;22.40;68.10;;;;;;5431309;26;20521;-24
2024/04/18 01:14:19;;;;;;;2.00;1.00;;;22.50;69.00;;;;;;5434361;26;20464;-24
2024/04/18 01:16:51;;;;;;;1.17;0.85;;;22.50;69.20;;;;;;5434376;26;20234;-23
2024/04/18 01:19:19;;;;;;;1.70;0.80;;;21.90;68.20;;;;;;5418481;26;20239;-26
2024/04/18 01:21:49;;;;;;;1.48;0.80;;;22.50;68.50;;;;;;5429452;26;20342;-23
2024/04/18 01:24:20;;;;;;;2.03;0.93;;;22.60;68.80;;;;;;5446109;26;20282;-27
2024/04/18 01:27:00;;;;;;;1.73;1.30;;;22.70;69.20;;;;;;5421762;26;20234;-24
2024/04/18 01:29:30;;;;;;;1.05;0.90;;;22.20;69.60;;;;;;5435091;26;20246;-24
2024/04/18 01:32:00;;;;;;;2.00;0.98;;;22.20;71.00;;;;;;5431707;26;20644;-24
2024/04/18 01:34:25;;;;;;;1.20;0.90;;;22.20;69.60;;;;;;5435448;26;20269;-23
2024/04/18 01:36:55;;;;;;;1.00;0.80;;;22.40;67.00;;;;;;5422377;26;20230;-22
2024/04/18 01:39:21;;;;;;;1.48;0.80;;;22.30;66.80;;;;;;5431206;26;20595;-22
2024/04/18 01:41:55;;;;;;;1.10;0.80;;;22.50;67.10;;;;;;5427202;26;20613;-26
2024/04/18 01:44:31;;;;;;;1.60;0.88;;;22.20;66.90;;;;;;5437243;26;20227;-24
2024/04/18 01:47:01;;;;;;;1.60;0.80;;;22.20;67.00;;;;;;5426043;26;20322;-25
2024/04/18 01:49:29;;;;;;;1.33;0.90;;;22.20;67.30;;;;;;5432527;26;20242;-26
2024/04/18 01:52:00;;;;;;;1.20;0.90;;;22.20;67.40;;;;;;5413444;26;20239;-24
2024/04/18 01:54:26;;;;;;;1.30;1.00;;;22.20;67.40;;;;;;5434908;26;21249;-25
2024/04/18 01:57:05;;;;;;;2.07;0.80;;;22.30;67.60;;;;;;5427974;26;20728;-24
2024/04/18 01:59:33;;;;;;;1.20;0.98;;;22.20;67.50;;;;;;5441858;26;20774;-23
2024/04/18 02:02:02;;;;;;;1.10;0.80;;;22.00;67.50;;;;;;5430186;26;20609;-24
2024/04/18 02:04:27;;;;;;;1.25;0.98;;;22.10;68.10;;;;;;5441311;26;20238;-23
2024/04/18 02:06:57;;;;;;;1.37;1.00;;;22.10;68.40;;;;;;5425526;26;20314;-24
2024/04/18 02:09:25;;;;;;;1.60;0.95;;;22.00;68.90;;;;;;5421977;26;20260;-24
2024/04/18 02:11:55;;;;;;;1.57;0.90;;;22.50;70.30;;;;;;5428953;26;20753;-25
2024/04/18 02:14:28;;;;;;;1.15;0.90;;;22.00;70.40;;;;;;5425965;26;20467;-23
2024/04/18 02:16:59;;;;;;;1.08;0.85;;;22.10;70.80;;;;;;5430415;26;20765;-22
2024/04/18 02:19:31;;;;;;;1.17;0.80;;;22.10;71.70;;;;;;5436229;26;20677;-24
2024/04/18 02:22:03;;;;;;;1.13;0.85;;;22.30;72.80;;;;;;5430137;26;20720;-23
2024/04/18 02:24:53;;;;;;;1.10;0.80;;;22.10;72.80;;;;;;5433938;26;20242;-24
2024/04/18 02:27:26;;;;;;;1.05;0.90;;;22.40;74.40;;;;;;5431384;26;20333;-25
2024/04/18 02:29:54;;;;;;;1.00;0.77;;;21.70;74.00;;;;;;5430665;26;20222;-24
2024/04/18 02:32:26;;;;;;;1.63;1.10;;;22.10;75.20;;;;;;5439050;26;20274;-22
2024/04/18 02:35:02;;;;;;;1.10;0.90;;;21.80;76.20;;;;;;5440893;26;20270;-23
2024/04/18 02:37:36;;;;;;;1.07;0.80;;;22.00;77.60;;;;;;5411289;26;21540;-25
2024/04/18 02:40:13;;;;;;;1.80;0.90;;;22.00;78.00;;;;;;5446834;26;20640;-23
2024/04/18 02:42:41;;;;;;;1.25;0.95;;;22.20;80.50;;;;;;5424117;26;20850;-25
2024/04/18 02:45:12;;;;;;;1.23;0.90;;;22.20;82.90;;;;;;5438818;26;20846;-22
2024/04/18 02:47:44;;;;;;;1.52;1.10;;;22.20;83.50;;;;;;5421871;26;20234;-25
2024/04/18 02:50:12;;;;;;;1.35;0.90;;;21.70;83.30;;;;;;5439916;26;20239;-23
2024/04/18 02:52:42;;;;;;;1.10;0.80;;;21.60;84.20;;;;;;5425107;26;20230;-24
2024/04/18 02:55:11;;;;;;;1.13;0.80;;;21.70;84.40;;;;;;5443245;26;21039;-24
2024/04/18 02:57:46;;;;;;;1.70;0.95;;;21.90;85.10;;;;;;5439442;26;20318;-24
2024/04/18 03:00:14;;;;;;;4.43;1.00;;;21.90;86.10;;;;;;5441369;26;20226;-24
2024/04/18 03:02:53;;;;;;;1.48;0.90;;;21.70;85.10;;;;;;5434977;26;20335;-23
2024/04/18 03:05:27;;;;;;;1.80;0.70;;;21.70;85.10;;;;;;5438285;26;20234;-22
2024/04/18 03:07:59;;;;;;;1.27;0.87;;;21.90;84.90;;;;;;5417937;26;20234;-22
2024/04/18 03:10:25;;;;;;;1.73;0.80;;;21.70;84.80;;;;;;5440240;26;20544;-22
2024/04/18 03:13:07;;;;;;;1.30;0.93;;;21.60;84.70;;;;;;5422029;26;20726;-27
2024/04/18 03:15:38;;;;;;;1.00;0.73;;;21.80;83.80;;;;;;5436704;26;20294;-24
2024/04/18 03:18:17;;;;;;;1.20;0.80;;;21.60;82.70;;;;;;5439552;26;20238;-27
2024/04/18 03:20:51;;;;;;;1.70;1.20;;;22.10;82.10;;;;;;5432478;26;20327;-23
2024/04/18 03:23:21;;;;;;;1.10;0.77;;;21.70;81.70;;;;;;5429905;26;20239;-23
2024/04/18 03:25:55;;;;;;;2.40;0.77;;;21.90;82.10;;;;;;5431664;26;20242;-26
2024/04/18 03:28:24;;;;;;;1.45;1.00;;;21.70;82.10;;;;;;5434492;26;21078;-28
2024/04/18 03:30:54;;;;;;;1.10;0.70;;;21.50;81.80;;;;;;5421347;26;20344;-24
2024/04/18 03:33:26;;;;;;;1.30;1.00;;;21.50;81.40;;;;;;5428935;26;20369;-24
2024/04/18 03:36:04;;;;;;;1.20;1.00;;;21.80;81.60;;;;;;5433339;26;20330;-25
2024/04/18 03:38:41;;;;;;;1.35;0.70;;;21.60;81.80;;;;;;5441412;26;20582;-24
2024/04/18 03:43:53;;;;;;;1.10;0.90;;;21.70;81.50;;;;;;5411983;26;20314;-27
2024/04/18 03:46:25;;;;;;;1.13;0.90;;;22.00;82.10;;;;;;5429151;26;20238;-23
2024/04/18 03:49:00;;;;;;;1.17;0.90;;;21.50;81.40;;;;;;5425907;26;20235;-22
2024/04/18 03:51:32;;;;;;;2.13;1.20;;;21.40;81.30;;;;;;5422362;26;20467;-24
2024/04/18 03:54:05;;;;;;;1.13;0.80;;;21.40;81.40;;;;;;5432302;26;20317;-22
2024/04/18 03:56:36;;;;;;;1.30;0.90;;;21.50;81.50;;;;;;5442600;26;20282;-25
2024/04/18 03:59:08;;;;;;;1.63;1.00;;;21.30;81.10;;;;;;5440803;26;20301;-24
2024/04/18 04:01:36;;;;;;;1.27;0.80;;;21.80;82.00;;;;;;5406311;26;21306;-26
2024/04/18 04:04:08;;;;;;;1.65;1.00;;;21.30;82.00;;;;;;5436940;26;20261;-23
2024/04/18 04:06:38;;;;;;;1.70;1.30;;;22.30;82.90;;;;;;5424188;26;20575;-22
2024/04/18 04:09:16;;;;;;;1.30;0.90;;;21.80;82.50;;;;;;5446910;26;20230;-23
2024/04/18 04:11:46;;;;;;;1.38;0.90;;;21.60;82.30;;;;;;5429059;26;20857;-23
2024/04/18 04:14:15;;;;;;;1.00;0.77;;;21.50;82.00;;;;;;5438410;26;20232;-24
2024/04/18 04:16:43;;;;;;;1.00;0.70;;;21.90;82.50;;;;;;5430057;26;20242;-24
2024/04/18 04:19:20;;;;;;;1.27;0.90;;;21.60;81.60;;;;;;5444653;26;20276;-22
2024/04/18 04:21:56;;;;;;;1.45;0.77;;;21.80;81.80;;;;;;5421743;26;20392;-24
2024/04/18 04:24:29;;;;;;;1.25;0.90;;;21.90;82.40;;;;;;5441215;26;20230;-25
2024/04/18 04:26:57;;;;;;;1.63;0.80;;;21.60;81.10;;;;;;5426926;26;20354;-24
2024/04/18 04:29:25;;;;;;;1.10;0.90;;;21.70;81.70;;;;;;5434706;26;20269;-24
2024/04/18 04:31:56;;;;;;;1.30;0.82;;;21.70;80.10;;;;;;5435886;26;20257;-24
2024/04/18 04:34:35;;;;;;;1.85;0.90;;;21.20;79.10;;;;;;5425111;26;20276;-23
2024/04/18 04:37:07;;;;;;;1.20;0.90;;;21.30;78.90;;;;;;5429688;26;20270;-23
2024/04/18 04:39:49;;;;;;;1.00;0.80;;;21.30;78.70;;;;;;5429343;26;20277;-22
2024/04/18 04:42:15;;;;;;;1.02;0.77;;;21.50;78.70;;;;;;5437251;26;20246;-22
2024/04/18 04:44:45;;;;;;;1.10;0.80;;;21.60;78.90;;;;;;5437991;26;20353;-24
2024/04/18 04:47:13;;;;;;;1.00;0.80;;;21.20;78.40;;;;;;5417484;26;20254;-25
2024/04/18 04:49:47;;;;;;;1.17;1.05;;;21.30;78.40;;;;;;5434245;26;20270;-24
2024/04/18 04:52:15;;;;;;;1.00;0.70;;;21.20;78.80;;;;;;5435011;26;20230;-24
2024/04/18 04:54:52;;;;;;;1.35;1.00;;;21.70;79.60;;;;;;5420071;26;20277;-25
2024/04/18 04:57:17;;;;;;;1.10;0.90;;;21.50;79.60;;;;;;5434299;26;20805;-25
2024/04/18 04:59:51;;;;;;;1.27;0.90;;;21.10;79.90;;;;;;5440911;26;20285;-24
2024/04/18 05:02:17;;;;;;;1.20;0.80;;;21.70;80.10;;;;;;5426415;26;20226;-25
2024/04/18 05:04:52;;;;;;;1.30;0.90;;;21.20;79.50;;;;;;5429727;26;21150;-25
2024/04/18 05:07:23;;;;;;;2.15;1.00;;;21.60;79.50;;;;;;5446681;26;20235;-22
2024/04/18 05:09:58;;;;;;;1.30;1.05;;;21.80;79.50;;;;;;5433528;26;20335;-23
2024/04/18 05:12:28;;;;;;;1.00;0.70;;;21.30;79.10;;;;;;5432052;26;20323;-23
2024/04/18 05:15:06;;;;;;;1.10;0.75;;;21.30;79.80;;;;;;5437915;26;20264;-25
2024/04/18 05:17:35;;;;;;;1.00;0.73;;;21.20;79.30;;;;;;5439800;26;20350;-23
2024/04/18 05:20:08;;;;;;;1.25;0.88;;;21.60;80.40;;;;;;5437685;26;20238;-26
2024/04/18 05:22:42;;;;;;;1.00;0.80;;;21.60;81.10;;;;;;5431981;26;20751;-23
2024/04/18 05:25:14;;;;;;;1.20;0.70;;;21.30;80.60;;;;;;5426944;26;20230;-24
2024/04/18 05:27:55;;;;;;;1.10;0.80;;;21.10;80.90;;;;;;5441090;26;20242;-24
2024/04/18 05:33:09;;;;;;;1.20;0.95;;;21.90;82.90;;;;;;5429713;26;20595;-23
2024/04/18 05:35:47;;;;;;;1.23;0.85;;;21.40;83.00;;;;;;5433306;26;22842;-25
2024/04/18 05:38:22;;;;;;;1.00;0.82;;;21.30;83.90;;;;;;5419162;26;20345;-24
2024/04/18 05:40:58;;;;;;;0.95;0.70;;;21.10;83.50;;;;;;5440838;26;20281;-24
2024/04/18 05:43:28;;;;;;;1.08;0.77;;;21.10;83.20;;;;;;5424567;26;21043;-26
2024/04/18 05:45:59;;;;;;;1.05;0.80;;;21.10;83.20;;;;;;5441286;26;20235;-23
2024/04/18 05:48:30;;;;;;;1.00;0.70;;;21.10;83.40;;;;;;5429311;26;21012;-24
2024/04/18 05:51:13;;;;;;;1.48;0.90;;;21.00;82.70;;;;;;5446541;26;20230;-26
2024/04/18 05:53:43;;;;;;;1.38;0.80;;;21.50;82.60;;;;;;5429731;26;20283;-25
2024/04/18 05:56:12;;;;;;;1.48;0.85;;;21.00;81.70;;;;;;5436093;26;20242;-26
2024/04/18 05:58:44;;;;;;;1.92;0.75;;;22.10;82.80;;;;;;5433939;26;20238;-22
2024/04/18 06:01:20;;;;;;;0.95;0.77;;;21.40;82.00;;;;;;5434884;26;20231;-26
2024/04/18 06:03:52;;;;;;;1.10;0.70;;;21.30;81.40;;;;;;5427314;26;20272;-24
2024/04/18 06:06:33;;;;;;;;;;;;;;;;;;;;;
2024/04/18 06:09:04;;;;;;;1.00;0.80;;;21.20;81.30;;;;;;5436852;26;20246;-26
2024/04/18 06:11:42;;;;;;;1.10;0.80;;;21.70;81.20;;;;;;5423639;26;20381;-25
2024/04/18 06:14:10;;;;;;;1.38;0.85;;;21.70;81.30;;;;;;5439478;26;20237;-27
2024/04/18 06:16:44;;;;;;;1.10;0.80;;;21.20;80.70;;;;;;5426788;26;20254;-24
2024/04/18 06:19:26;;;;;;;0.90;0.68;;;21.20;80.60;;;;;;5437340;26;20792;-24
2024/04/18 06:22:04;;;;;;;0.90;0.60;;;21.70;81.40;;;;;;5433063;26;20222;-24
2024/04/18 06:24:39;;;;;;;1.30;0.75;;;21.30;80.60;;;;;;5438692;26;20264;-25
2024/04/18 06:27:12;;;;;;;1.15;0.90;;;21.70;80.60;;;;;;5431302;26;20259;-28
2024/04/18 06:29:51;;;;;;;1.00;0.80;;;21.30;79.60;;;;;;5436650;26;20256;-25
2024/04/18 06:32:20;;;;;;;0.90;0.70;;;21.40;80.30;;;;;;5427621;26;20982;-24
2024/04/18 06:34:49;;;;;;;1.10;0.80;;;21.50;80.50;;;;;;5429252;26;20335;-25
2024/04/18 06:37:20;;;;;;;1.05;0.80;;;21.90;80.70;;;;;;5426818;26;20427;-25
2024/04/18 06:39:50;;;;;;;1.00;0.80;;;21.80;80.50;;;;;;5432018;26;20350;-23
2024/04/18 06:42:19;;;;;;;1.25;0.80;;;21.30;79.70;;;;;;5427303;26;20227;-23
2024/04/18 06:44:47;;;;;;;1.10;0.80;;;21.60;79.90;;;;;;5437546;26;20722;-22
2024/04/18 06:47:15;;;;;;;1.00;0.70;;;21.50;79.50;;;;;;5438228;26;20358;-24
2024/04/18 06:49:46;;;;;;;1.10;0.80;;;21.50;79.20;;;;;;5433680;26;20352;-24
2024/04/18 06:52:22;;;;;;;1.00;0.70;;;22.00;79.70;;;;;;5426420;26;20295;-27
2024/04/18 06:54:52;;;;;;;1.20;0.70;;;21.90;79.20;;;;;;5432166;26;20238;-26
2024/04/18 06:57:22;;;;;;;1.23;0.90;;;22.30;80.00;;;;;;5429778;26;20250;-27
2024/04/18 06:59:53;;;;;;;1.30;0.80;;;22.20;79.70;;;;;;5439954;26;20274;-28
2024/04/18 07:02:22;;;;;;;1.00;0.80;;;22.10;79.10;;;;;;5427679;26;20231;-23
2024/04/18 07:04:54;;;;;;;1.10;0.80;;;22.00;79.20;;;;;;5434123;26;20597;-23
2024/04/18 07:07:30;;;;;;;0.97;0.67;;;22.00;79.20;;;;;;5445150;26;20226;-26
2024/04/18 07:10:02;;;;;;;1.50;1.07;;;22.10;79.40;;;;;;5425119;26;20468;-27
2024/04/18 07:12:44;;;;;;;0.90;0.70;;;22.20;79.50;;;;;;5438087;26;20459;-24
2024/04/18 07:15:16;;;;;;;1.40;1.00;;;22.10;79.70;;;;;;5434398;26;20455;-26
2024/04/18 07:17:54;;;;;;;1.17;0.70;;;22.50;80.50;;;;;;5434074;26;20470;-26
2024/04/18 07:20:32;;;;;;;1.77;0.73;;;22.90;80.70;;;;;;5430711;26;20466;-27
2024/04/18 07:23:06;;;;;;;1.00;0.80;;;22.60;80.20;;;;;;5441214;26;21240;-26
2024/04/18 07:25:41;;;;;;;1.00;0.70;;;22.70;80.20;;;;;;5423365;26;20464;-24
2024/04/18 07:28:11;;;;;;;1.10;0.73;;;22.40;79.30;;;;;;5431592;26;21501;-26
2024/04/18 07:30:40;;;;;;;2.03;0.70;;;22.90;80.30;;;;;;5427083;26;21439;-27
2024/04/18 07:33:09;;;;;;;1.83;0.80;;;22.50;79.50;;;;;;5443081;26;21087;-28
2024/04/18 07:35:40;;;;;;;3.20;1.20;;;22.50;79.00;;;;;;5445641;26;20483;-26
2024/04/18 07:38:14;;;;;;;0.90;0.70;;;22.60;78.80;;;;;;5429500;26;20459;-27
2024/04/18 07:40:47;;;;;;;1.10;0.70;;;22.60;78.60;;;;;;5439707;26;20507;-23
2024/04/18 07:43:15;;;;;;;1.00;0.70;;;22.60;77.90;;;;;;5432065;26;20674;-26
2024/04/18 07:45:50;;;;;;;1.30;0.87;;;22.70;78.60;;;;;;5426133;26;20464;-27
2024/04/18 07:48:23;;;;;;;1.17;0.83;;;23.20;78.10;;;;;;5421590;26;20458;-27
2024/04/18 07:50:52;;;;;;;1.47;0.70;;;23.50;78.10;;;;;;5445868;26;20520;-25
2024/04/18 07:53:27;;;;;;;6.23;0.90;;;22.80;77.10;;;;;;5422235;26;20459;-25
2024/04/18 07:55:55;;;;;;;0.97;0.77;;;23.00;77.10;;;;;;5438977;26;20474;-26
2024/04/18 07:58:26;;;;;;;1.93;0.80;;;23.10;76.60;;;;;;5431538;26;20468;-26
2024/04/18 08:01:11;;;;;;;3.93;0.90;;;23.20;76.30;;;;;;5322260;26;21541;-31
2024/04/18 08:03:40;;;;;;;2.10;0.80;;;23.20;75.90;;;;;;5329535;26;20483;-31
2024/04/18 08:06:08;;;;;;;3.47;0.90;;;23.00;73.50;;;;;;5321489;26;21498;-30
2024/04/18 08:08:44;;;;;;;1.10;0.80;;;22.90;72.10;;;;;;5328897;26;21587;-29
2024/04/18 08:11:16;;;;;;;1.60;1.00;;;23.20;70.80;;;;;;5310581;26;20487;-28
2024/04/18 08:13:47;;;;;;;1.30;0.80;;;23.10;70.70;;;;;;5331226;26;22253;-30
2024/04/18 08:16:17;;;;;;;1.80;1.37;;;24.00;71.60;;;;;;5318357;26;20476;-28
2024/04/18 08:18:47;;;;;;;4.20;1.07;;;22.90;69.90;;;;;;5318598;26;21226;-31
2024/04/18 08:21:16;;;;;;;1.60;0.90;;;23.30;69.90;;;;;;5321674;26;20483;-28
2024/04/18 08:23:51;;;;;;;7.53;1.20;;;;;;;;;;5300284;26;21505;-28
2024/04/18 08:26:22;;;;;;;2.30;1.07;;;;;;;;;;5324766;26;21837;-29
2024/04/18 08:28:55;;;;;;;1.33;0.90;;;;;;;;;;5308481;26;20464;-27
2024/04/18 08:31:27;;;;;;;3.27;1.13;;;;;;;;;;5317427;26;20472;-30
2024/04/18 08:34:00;;;;;;;1.67;1.10;;;;;;;;;;5318411;26;21240;-27
2024/04/18 08:36:31;;;;;;;3.90;1.23;;;;;;;;;;5310853;26;20471;-27
2024/04/18 08:39:06;;;;;;;1.40;0.80;;;;;;;;;;5315149;26;20472;-28
2024/04/18 08:41:40;;;;;;;4.80;1.13;;;24.60;99.90;;;;;;5323154;26;20473;-29
2024/04/18 08:44:14;;;;;;;3.43;1.10;;;;;;;;;;5323622;26;20492;-27
2024/04/18 08:46:45;;;;;;;5.37;2.23;;;;;;;;;;5320192;26;20525;-27
2024/04/18 08:49:16;;;;;;;3.37;2.00;;;23.30;85.10;;;;;;5315569;26;20465;-28
2024/04/18 08:51:46;;;;;;;4.20;1.60;;;22.50;70.40;;;;;;5316124;26;22749;-26
2024/04/18 08:54:21;;;;;;;5.80;1.38;;;21.60;50.50;;;;;;5347870;26;21260;-25
2024/04/18 08:56:54;;;;;;;4.47;1.90;;;21.90;58.00;;;;;;5428329;26;20237;-25
2024/04/18 08:59:28;;;;;;;2.23;1.50;;;22.30;68.60;;;;;;5431868;26;20343;-23
2024/04/18 09:02:00;;;;;;;3.90;1.30;;;23.20;63.20;;;;;;5435669;26;20459;-24
2024/04/18 09:04:28;;;;;;;3.60;1.13;;;23.70;66.80;;;;;;5417372;26;20479;-24
2024/04/18 09:06:59;;;;;;;3.47;1.40;;;23.50;64.80;;;;;;5429518;26;21115;-25
2024/04/18 09:09:33;;;;;;;3.30;0.87;;;23.70;63.20;;;;;;5435441;26;21298;-25
2024/04/18 09:12:05;;;;;;;1.70;0.97;;;23.80;62.00;;;;;;5434716;26;23392;-26
2024/04/18 09:14:40;;;;;;;3.33;1.20;;;23.80;59.90;;;;;;5430573;26;20910;-26
2024/04/18 09:17:14;;;;;;;1.17;0.83;;;24.00;58.60;;;;;;5424981;26;21844;-24
2024/04/18 09:19:45;;;;;;;2.63;0.90;;;24.10;58.70;;;;;;5431023;26;22225;-26
2024/04/18 09:22:17;;;;;;;3.83;1.17;;;24.40;58.60;;;;;;5423676;26;20467;-26
2024/04/18 09:24:52;;;;;;;2.97;0.90;;;24.40;58.40;;;;;;5432314;26;21078;-23
2024/04/18 09:27:24;;;;;;;3.23;1.23;;;24.40;58.20;;;;;;5426661;26;20913;-23
2024/04/18 09:29:53;;;;;;;5.80;1.10;;;24.50;58.00;;;;;;5431410;26;20834;-24
2024/04/18 09:32:26;;;;;;;1.67;1.33;;;24.70;58.10;;;;;;5432727;26;20764;-24
2024/04/18 09:34:58;;;;;;;2.80;1.20;;;24.90;58.20;;;;;;5434692;26;20580;-23
2024/04/18 09:37:29;;;;;;;3.30;0.90;;;24.80;58.40;;;;;;5429544;26;20481;-22
2024/04/18 09:40:02;;;;;;;2.40;0.90;;;24.70;58.60;;;;;;5442307;26;21372;-23
2024/04/18 09:42:43;;;;;;;2.37;1.13;;;25.00;59.00;;;;;;5432440;26;21195;-25
2024/04/18 09:45:20;;;;;;;3.80;1.23;;;25.00;59.20;;;;;;5445281;26;20511;-23
2024/04/18 09:47:54;;;;;;;1.60;0.93;;;25.00;59.70;;;;;;5429924;26;20586;-24
2024/04/18 09:50:32;;;;;;;4.40;1.10;;;25.10;61.00;;;;;;5424464;26;21118;-25
2024/04/18 09:53:07;;;;;;;1.80;1.03;;;25.00;61.00;;;;;;5413977;26;20476;-24
2024/04/18 09:55:46;;;;;;;2.40;1.23;;;24.90;61.30;;;;;;5439865;26;20578;-23
2024/04/18 09:58:20;;;;;;;1.20;0.90;;;24.80;61.50;;;;;;5443329;26;23338;-23
2024/04/18 10:00:49;;;;;;;2.80;1.40;;;24.80;62.20;;;;;;5420190;26;20499;-25
2024/04/18 10:03:19;;;;;;;1.97;1.50;;;24.70;62.40;;;;;;5439406;26;20476;-23
2024/04/18 10:05:54;;;;;;;2.50;1.20;;;24.70;62.80;;;;;;5440041;26;21593;-23
2024/04/18 10:08:29;;;;;;;3.87;1.47;;;24.50;62.80;;;;;;5428745;26;20617;-24
2024/04/18 10:11:01;;;;;;;1.50;0.90;;;24.60;63.20;;;;;;5440027;26;20467;-23
2024/04/18 10:13:41;;;;;;;3.47;1.37;;;24.60;63.80;;;;;;5430716;26;20599;-25
2024/04/18 10:16:11;;;;;;;2.97;1.40;;;24.60;64.70;;;;;;5440442;26;21756;-24
2024/04/18 10:18:46;;;;;;;3.60;1.23;;;24.50;65.10;;;;;;5428944;26;21484;-22
2024/04/18 10:21:27;;;;;;;6.10;1.60;;;24.60;65.40;;;;;;5436379;26;20515;-24
2024/04/18 10:23:57;;;;;;;2.73;1.37;;;24.80;66.00;;;;;;5425541;26;20473;-21
2024/04/18 10:26:42;;;;;;;3.33;1.40;;;25.00;65.70;;;;;;5424695;26;20483;-24
2024/04/18 10:29:27;;;;;;;2.90;1.37;;;25.10;65.10;;;;;;5434618;26;20513;-25
2024/04/18 10:32:06;;;;;;;3.43;1.43;;;25.10;64.80;;;;;;5442319;26;20616;-22
2024/04/18 10:34:38;;;;;;;2.70;1.13;;;25.00;65.10;;;;;;5420655;26;20652;-25
2024/04/18 10:37:11;;;;;;;8.17;1.77;;;24.70;64.80;;;;;;5441983;26;20516;-24
2024/04/18 10:39:44;;;;;;;3.40;1.50;;;24.70;65.10;;;;;;5436147;26;20531;-25
2024/04/18 10:42:22;;;;;;;1.87;1.30;;;24.60;65.40;;;;;;5337088;26;20544;-25
2024/04/18 10:44:53;;;;;;;2.17;0.97;;;24.60;65.40;;;;;;5180050;26;21806;-28
2024/04/18 10:47:24;;;;;;;2.10;1.37;;;24.50;66.00;;;;;;5164690;26;20472;-24
2024/04/18 10:49:58;;;;;;;3.43;0.80;;;24.40;66.50;;;;;;5202886;26;21619;-28
2024/04/18 10:52:31;;;;;;;1.27;0.97;;;24.30;67.20;;;;;;5186872;26;20491;-27
2024/04/18 10:55:02;;;;;;;1.97;1.00;;;24.20;68.00;;;;;;5197388;26;20479;-25
2024/04/18 10:57:35;;;;;;;3.53;1.30;;;24.30;70.00;;;;;;5189245;26;22963;-25
2024/04/18 11:00:04;;;;;;;3.60;1.13;;;24.30;70.90;;;;;;5182791;26;20639;-25
2024/04/18 11:02:34;;;;;;;2.47;1.00;;;24.80;72.10;;;;;;5215264;26;20533;-24
2024/04/18 11:05:04;;;;;;;3.47;1.07;;;24.40;73.70;;;;;;5197827;26;20461;-25
2024/04/18 11:07:40;;;;;;;2.10;1.17;;;24.60;75.30;;;;;;5182537;26;21241;-28
2024/04/18 11:10:13;;;;;;;2.10;1.20;;;24.40;77.80;;;;;;5197617;26;21182;-26
2024/04/18 11:12:51;;;;;;;1.00;0.80;;;24.50;80.70;;;;;;5197243;26;20479;-27
2024/04/18 11:15:20;;;;;;;4.83;1.17;;;24.20;83.50;;;;;;5195144;26;22054;-25
2024/04/18 11:17:51;;;;;;;2.40;1.20;;;24.30;84.80;;;;;;5192331;26;26840;-26
2024/04/18 11:20:24;;;;;;;2.07;1.27;;;23.90;82.60;;;;;;5200148;26;20514;-26
2024/04/18 11:22:57;;;;;;;8.93;1.70;;;24.20;82.20;;;;;;5189986;26;20560;-28
2024/04/18 11:25:26;;;;;;;1.70;0.80;;;24.50;82.00;;;;;;5186404;26;20663;-28
2024/04/18 11:27:58;;;;;;;2.07;1.17;;;24.40;81.70;;;;;;5189147;26;27062;-25
2024/04/18 11:30:42;;;;;;;3.50;1.13;;;24.50;80.80;;;;;;5182039;26;22581;-25
2024/04/18 11:33:23;;;;;;;1.90;1.00;;;24.30;76.10;;;;;;5186004;26;21312;-26
2024/04/18 11:35:54;;;;;;;1.70;1.20;;;24.30;75.30;;;;;;5176938;26;21432;-26
2024/04/18 11:38:28;;;;;;;2.20;1.17;;;24.20;73.70;;;;;;5241661;26;20513;-24
2024/04/18 11:41:02;;;;;;;2.83;1.20;;;23.80;72.50;;;;;;5432473;26;20547;-24
2024/04/18 11:43:36;;;;;;;1.80;1.00;;;24.00;72.00;;;;;;5430830;26;20471;-25
2024/04/18 11:46:06;;;;;;;3.53;1.40;;;24.30;72.50;;;;;;5442003;26;20898;-24
2024/04/18 11:48:36;;;;;;;2.17;1.10;;;24.10;72.90;;;;;;5434824;26;20467;-24
2024/04/18 11:51:04;;;;;;;1.80;1.00;;;23.80;72.40;;;;;;5430599;26;21730;-23
2024/04/18 11:53:44;;;;;;;2.70;1.00;;;23.80;72.50;;;;;;5437908;26;20910;-23
2024/04/18 11:56:12;;;;;;;2.53;1.00;;;23.90;72.40;;;;;;5426597;26;20713;-23
2024/04/18 11:58:45;;;;;;;1.80;0.90;;;23.80;72.00;;;;;;5435623;26;20951;-25
2024/04/18 12:01:15;;;;;;;2.30;0.87;;;23.90;72.20;;;;;;5438014;26;20596;-27
2024/04/18 12:03:49;;;;;;;3.43;1.17;;;23.90;72.50;;;;;;5425505;26;20568;-24
2024/04/18 12:06:21;;;;;;;2.47;0.90;;;23.70;72.40;;;;;;5420485;26;21088;-27
2024/04/18 12:08:50;;;;;;;1.40;0.80;;;23.70;73.00;;;;;;5432754;26;20807;-28
2024/04/18 12:11:21;;;;;;;1.73;0.90;;;23.70;73.00;;;;;;5440578;26;20452;-25
2024/04/18 12:13:56;;;;;;;2.80;1.33;;;23.80;73.40;;;;;;5427262;26;20459;-28
2024/04/18 12:16:32;;;;;;;1.60;0.80;;;23.80;73.80;;;;;;5427254;26;21033;-25
2024/04/18 12:19:04;;;;;;;2.23;0.93;;;23.80;85.60;;;;;;5416266;26;21145;-25
2024/04/18 12:21:35;;;;;;;1.00;0.80;;;23.60;92.90;;;;;;5428273;26;23617;-26
2024/04/18 12:24:04;;;;;;;3.30;1.43;;;24.20;92.50;;;;;;5426590;26;20920;-25
2024/04/18 12:26:35;;;;;;;1.33;0.77;;;;;;;;;;5420318;26;21115;-26
2024/04/18 12:29:08;;;;;;;1.70;1.00;;;23.20;99.90;;;;;;5422551;26;20471;-24
2024/04/18 12:31:45;;;;;;;1.20;0.80;;;23.80;86.70;;;;;;5418377;26;20596;-28
2024/04/18 12:34:15;;;;;;;5.30;1.67;;;23.70;78.80;;;;;;5428630;26;20447;-24
2024/04/18 12:36:47;;;;;;;1.97;0.90;;;23.80;76.30;;;;;;5409576;26;20601;-26
2024/04/18 12:39:16;;;;;;;3.93;1.20;;;23.70;75.90;;;;;;5410650;26;20530;-26
2024/04/18 12:41:45;;;;;;;1.60;1.10;;;23.70;76.40;;;;;;5430227;26;20475;-26
2024/04/18 12:44:19;;;;;;;2.27;0.93;;;23.30;77.30;;;;;;5436880;26;20483;-24
2024/04/18 12:46:50;;;;;;;2.53;1.10;;;23.80;78.90;;;;;;5422322;26;20523;-24
2024/04/18 12:49:18;;;;;;;1.60;0.90;;;23.70;78.70;;;;;;5422472;26;20518;-25
2024/04/18 12:51:52;;;;;;;1.20;0.90;;;23.60;78.80;;;;;;5409646;26;20476;-25
2024/04/18 12:54:26;;;;;;;2.40;1.23;;;23.70;80.40;;;;;;5418549;26;20467;-25
2024/04/18 12:56:54;;;;;;;1.50;0.90;;;23.30;81.10;;;;;;5432678;26;20469;-24
2024/04/18 12:59:23;;;;;;;1.60;0.90;;;23.40;80.30;;;;;;5410885;26;21169;-27
2024/04/18 13:01:53;;;;;;;1.20;0.80;;;23.30;88.80;;;;;;5431251;26;20471;-27
2024/04/18 13:04:21;;;;;;;1.67;1.00;;;23.40;88.30;;;;;;5424031;26;20561;-25
2024/04/18 13:06:51;;;;;;;1.30;0.90;;;23.40;84.00;;;;;;5405065;26;20577;-27
2024/04/18 13:09:19;;;;;;;0.90;0.60;;;23.30;94.90;;;;;;5428656;26;20475;-24
2024/04/18 13:11:51;;;;;;;1.50;1.17;;;23.10;96.80;;;;;;5435793;26;21035;-24
2024/04/18 13:14:26;;;;;;;2.57;1.00;;;23.70;97.20;;;;;;5420936;26;20463;-23
2024/04/18 13:16:54;;;;;;;2.10;0.70;;;23.50;91.70;;;;;;5415862;26;20624;-24
2024/04/18 13:19:26;;;;;;;1.30;0.70;;;24.00;92.60;;;;;;5425365;26;20460;-23
2024/04/18 13:21:54;;;;;;;1.53;1.00;;;23.30;92.30;;;;;;5423334;26;20479;-26